createdAt,value
2018-09-05T00:01:18.365Z,9.03
2018-09-05T00:03:46.764Z,6.30
2018-09-05T00:06:15.142Z,6.00
2018-09-05T00:08:43.544Z,6.27
2018-09-05T00:11:11.905Z,7.63
2018-09-05T00:13:40.280Z,7.10
2018-09-05T00:16:08.620Z,5.87
2018-09-05T00:18:36.987Z,6.80
2018-09-05T00:21:05.636Z,6.43
2018-09-05T00:23:34.031Z,6.97
2018-09-05T00:26:02.414Z,6.13
2018-09-05T00:28:30.819Z,7.77
2018-09-05T00:30:59.165Z,6.67
2018-09-05T00:33:27.525Z,6.03
2018-09-05T00:35:55.899Z,7.03
2018-09-05T00:38:24.303Z,7.90
2018-09-05T00:40:52.656Z,6.10
2018-09-05T00:43:21.079Z,7.27
2018-09-05T00:45:49.455Z,6.93
2018-09-05T00:48:17.832Z,7.80
2018-09-05T00:50:46.224Z,6.93
2018-09-05T00:53:14.576Z,8.03
2018-09-05T00:55:42.963Z,5.87
2018-09-05T00:58:11.326Z,8.73
2018-09-05T01:00:39.728Z,7.20
2018-09-05T01:03:08.085Z,6.03
2018-09-05T01:05:36.474Z,8.40
2018-09-05T01:08:04.843Z,7.23
2018-09-05T01:10:33.217Z,6.70
2018-09-05T01:13:01.579Z,7.23
2018-09-05T01:15:29.963Z,5.70
2018-09-05T01:17:58.301Z,8.20
2018-09-05T01:20:26.689Z,6.03
2018-09-05T01:22:55.096Z,7.00
2018-09-05T01:25:23.484Z,6.83
2018-09-05T01:27:52.104Z,5.27
2018-09-05T01:30:20.765Z,5.93
2018-09-05T01:32:49.120Z,8.47
2018-09-05T01:35:17.495Z,6.07
2018-09-05T01:37:45.932Z,5.53
2018-09-05T01:40:14.311Z,6.50
2018-09-05T01:42:42.680Z,7.30
2018-09-05T01:45:11.077Z,6.30
2018-09-05T01:47:39.436Z,5.87
2018-09-05T01:50:07.860Z,7.00
2018-09-05T01:52:36.204Z,6.50
2018-09-05T01:55:04.588Z,5.83
2018-09-05T01:57:32.965Z,6.43
2018-09-05T02:00:01.308Z,6.80
2018-09-05T02:02:29.639Z,7.80
2018-09-05T02:04:58.006Z,7.90
2018-09-05T02:07:26.336Z,6.13
2018-09-05T02:09:54.681Z,6.10
2018-09-05T02:12:23.035Z,7.00
2018-09-05T02:14:51.393Z,6.47
2018-09-05T02:17:19.732Z,6.33
2018-09-05T02:19:48.103Z,7.73
2018-09-05T02:22:16.461Z,7.80
2018-09-05T02:24:45.035Z,9.43
2018-09-05T02:27:13.425Z,8.17
2018-09-05T02:29:41.785Z,6.33
2018-09-05T02:32:10.128Z,7.90
2018-09-05T02:34:38.494Z,6.40
2018-09-05T02:37:06.848Z,5.40
2018-09-05T02:39:35.237Z,6.17
2018-09-05T02:42:03.612Z,5.37
2018-09-05T02:44:31.972Z,6.83
2018-09-05T02:47:00.338Z,6.53
2018-09-05T02:49:28.677Z,7.17
2018-09-05T02:51:57.049Z,7.90
2018-09-05T02:54:25.383Z,6.13
2018-09-05T02:56:53.776Z,7.23
2018-09-05T02:59:22.152Z,7.03
2018-09-05T03:01:50.579Z,8.33
2018-09-05T03:04:18.931Z,6.80
2018-09-05T03:06:47.304Z,6.00
2018-09-05T03:09:15.713Z,7.70
2018-09-05T03:11:44.036Z,6.70
2018-09-05T03:14:12.387Z,6.47
2018-09-05T03:16:40.771Z,6.77
2018-09-05T03:19:09.116Z,7.67
2018-09-05T03:21:37.480Z,7.50
2018-09-05T03:24:05.813Z,7.97
2018-09-05T03:26:34.159Z,9.10
2018-09-05T03:29:02.526Z,7.70
2018-09-05T03:31:30.858Z,7.63
2018-09-05T03:33:59.180Z,7.77
2018-09-05T03:36:27.539Z,7.50
2018-09-05T03:38:55.891Z,6.80
2018-09-05T03:41:24.237Z,6.70
2018-09-05T03:43:52.565Z,5.73
2018-09-05T03:46:20.928Z,6.10
2018-09-05T03:48:49.256Z,7.00
2018-09-05T03:51:17.616Z,7.60
2018-09-05T03:53:45.961Z,6.70
2018-09-05T03:56:14.316Z,8.13
2018-09-05T03:58:42.629Z,7.47
2018-09-05T04:01:10.995Z,6.83
2018-09-05T04:03:39.308Z,7.77
2018-09-05T04:06:07.828Z,6.30
2018-09-05T04:08:36.153Z,8.97
2018-09-05T04:11:04.556Z,7.63
2018-09-05T04:13:32.907Z,8.37
2018-09-05T04:16:01.261Z,6.70
2018-09-05T04:18:29.600Z,7.37
2018-09-05T04:20:57.952Z,8.03
2018-09-05T04:23:29.258Z,6.73
2018-09-05T04:25:57.616Z,10.70
2018-09-05T04:28:26.128Z,7.50
2018-09-05T04:30:54.467Z,8.20
2018-09-05T04:33:22.790Z,7.80
2018-09-05T04:35:51.148Z,7.90
2018-09-05T04:38:19.535Z,9.70
2018-09-05T04:40:47.867Z,8.70
2018-09-05T04:43:16.219Z,8.93
2018-09-05T04:45:44.541Z,8.07
2018-09-05T04:48:12.916Z,8.93
2018-09-05T04:50:41.261Z,8.07
2018-09-05T04:53:09.654Z,9.57
2018-09-05T04:55:37.994Z,8.07
2018-09-05T04:58:06.406Z,8.53
2018-09-05T05:00:34.744Z,8.60
2018-09-05T05:03:04.607Z,11.57
2018-09-05T05:05:33.042Z,7.57
2018-09-05T05:08:01.379Z,7.23
2018-09-05T05:10:29.714Z,7.43
2018-09-05T05:12:58.084Z,10.37
2018-09-05T05:15:26.408Z,9.17
2018-09-05T05:17:54.764Z,9.53
2018-09-05T05:20:23.144Z,10.20
2018-09-05T05:22:51.500Z,9.73
2018-09-05T05:25:19.826Z,10.27
2018-09-05T05:27:48.215Z,8.50
2018-09-05T05:30:16.704Z,9.63
2018-09-05T05:32:45.103Z,7.33
2018-09-05T05:35:13.502Z,8.00
2018-09-05T05:37:41.863Z,8.93
2018-09-05T05:40:10.246Z,7.37
2018-09-05T05:42:38.627Z,9.63
2018-09-05T05:45:06.996Z,9.33
2018-09-05T05:47:35.644Z,7.97
2018-09-05T05:50:04.396Z,9.47
2018-09-05T05:52:33.454Z,8.03
2018-09-05T05:55:02.418Z,9.27
2018-09-05T05:57:30.747Z,9.13
2018-09-05T05:59:59.098Z,10.20
2018-09-05T06:02:27.469Z,8.90
2018-09-05T06:04:55.807Z,9.20
2018-09-05T06:07:24.160Z,7.77
2018-09-05T06:09:52.515Z,9.17
2018-09-05T06:12:20.867Z,8.37
2018-09-05T06:14:49.243Z,6.70
2018-09-05T06:17:17.615Z,8.93
2018-09-05T06:19:45.959Z,8.17
2018-09-05T06:22:14.345Z,9.67
2018-09-05T06:24:42.691Z,10.73
2018-09-05T06:27:11.083Z,10.07
2018-09-05T06:29:39.415Z,7.33
2018-09-05T06:32:07.749Z,8.43
2018-09-05T06:34:36.119Z,7.73
2018-09-05T06:37:04.481Z,9.93
2018-09-05T06:39:32.856Z,8.43
2018-09-05T06:42:01.189Z,9.43
2018-09-05T06:44:29.555Z,8.47
2018-09-05T06:46:57.935Z,8.30
2018-09-05T06:49:26.350Z,8.00
2018-09-05T06:51:54.694Z,10.07
2018-09-05T06:54:23.152Z,8.13
2018-09-05T06:56:51.484Z,8.20
2018-09-05T06:59:19.858Z,10.00
2018-09-05T07:01:48.189Z,8.50
2018-09-05T07:04:16.541Z,8.50
2018-09-05T07:06:45.138Z,8.23
2018-09-05T07:09:13.855Z,8.00
2018-09-05T07:11:42.329Z,6.87
2018-09-05T07:14:10.764Z,10.40
2018-09-05T07:16:39.084Z,11.20
2018-09-05T07:19:08.921Z,10.60
2018-09-05T07:21:37.566Z,8.67
2018-09-05T07:24:06.343Z,8.47
2018-09-05T07:26:34.666Z,9.23
2018-09-05T07:29:03.053Z,9.13
2018-09-05T07:31:31.393Z,10.20
2018-09-05T07:33:59.751Z,9.63
2018-09-05T07:36:28.107Z,9.23
2018-09-05T07:38:56.479Z,11.67
2018-09-05T07:41:24.803Z,8.73
2018-09-05T07:43:53.244Z,11.73
2018-09-05T07:46:21.601Z,10.40
2018-09-05T07:48:50.094Z,10.90
2018-09-05T07:51:18.609Z,10.60
2018-09-05T07:53:47.052Z,11.33
2018-09-05T07:56:15.436Z,9.10
2018-09-05T07:58:43.837Z,10.90
2018-09-05T08:01:12.266Z,11.30
2018-09-05T08:03:40.684Z,12.30
2018-09-05T08:06:09.049Z,10.63
2018-09-05T08:08:37.426Z,14.83
2018-09-05T08:11:05.997Z,13.23
2018-09-05T08:13:34.485Z,11.00
2018-09-05T08:16:02.874Z,14.27
2018-09-05T08:18:31.398Z,13.00
2018-09-05T08:20:59.760Z,12.00
2018-09-05T08:23:28.119Z,13.60
2018-09-05T08:25:56.453Z,12.17
2018-09-05T08:28:24.849Z,12.17
2018-09-05T08:30:53.224Z,13.43
2018-09-05T08:33:21.777Z,12.17
2018-09-05T08:35:50.406Z,11.93
2018-09-05T08:38:18.526Z,11.13
2018-09-05T08:40:46.876Z,10.60
2018-09-05T08:43:15.218Z,10.53
2018-09-05T08:45:43.833Z,14.10
2018-09-05T08:48:12.100Z,11.33
2018-09-05T08:50:40.384Z,11.13
2018-09-05T08:53:08.707Z,14.33
2018-09-05T08:55:37.108Z,13.27
2018-09-05T08:58:05.476Z,11.43
2018-09-05T09:00:33.834Z,11.17
2018-09-05T09:03:02.235Z,13.53
2018-09-05T09:05:30.564Z,11.77
2018-09-05T09:07:58.917Z,12.03
2018-09-05T09:10:27.292Z,11.90
2018-09-05T09:12:55.673Z,12.40
2018-09-05T09:15:24.046Z,12.73
2018-09-05T09:17:52.423Z,11.87
2018-09-05T09:20:20.886Z,12.13
2018-09-05T09:22:49.249Z,14.00
2018-09-05T09:25:17.598Z,12.97
2018-09-05T09:27:46.001Z,13.97
2018-09-05T09:30:14.382Z,15.40
2018-09-05T09:32:42.757Z,14.63
2018-09-05T09:35:11.150Z,14.97
2018-09-05T09:37:39.517Z,14.67
2018-09-05T09:40:07.907Z,16.43
2018-09-05T09:42:36.259Z,13.60
2018-09-05T09:45:04.645Z,16.50
2018-09-05T09:47:33.005Z,16.53
2018-09-05T09:50:01.368Z,13.50
2018-09-05T09:52:29.710Z,13.13
2018-09-05T09:54:58.069Z,16.00
2018-09-05T09:57:26.429Z,12.77
2018-09-05T09:59:54.995Z,12.10
2018-09-05T10:03:32.406Z,12.53
2018-09-05T10:06:06.008Z,13.03
2018-09-05T10:08:40.373Z,10.93
2018-09-05T10:11:15.464Z,12.90
2018-09-05T10:13:49.260Z,9.13
2018-09-05T10:16:22.881Z,10.80
2018-09-05T10:18:52.554Z,10.67
2018-09-05T10:21:21.002Z,10.83
2018-09-05T10:23:49.345Z,10.93
2018-09-05T10:26:17.705Z,8.67
2018-09-05T10:28:46.060Z,9.80
2018-09-05T10:31:14.432Z,7.90
2018-09-05T10:33:42.770Z,9.40
2018-09-05T10:36:11.120Z,9.93
2018-09-05T10:38:40.050Z,9.83
2018-09-05T10:41:08.652Z,8.63
2018-09-05T10:43:37.014Z,8.63
2018-09-05T10:46:05.415Z,8.43
2018-09-05T10:48:34.625Z,8.83
2018-09-05T10:51:03.021Z,9.80
2018-09-05T10:53:31.370Z,9.10
2018-09-05T10:55:59.774Z,6.90
2018-09-05T10:58:28.152Z,8.20
2018-09-05T11:00:56.566Z,8.37
2018-09-05T11:03:25.623Z,7.43
2018-09-05T11:05:54.033Z,7.40
2018-09-05T11:08:22.476Z,8.13
2018-09-05T11:10:51.091Z,6.43
2018-09-05T11:13:19.452Z,7.50
2018-09-05T11:15:47.889Z,6.53
2018-09-05T11:18:16.244Z,7.97
2018-09-05T11:20:44.727Z,6.67
2018-09-05T11:23:13.122Z,8.83
2018-09-05T11:25:41.516Z,7.60
2018-09-05T11:28:09.952Z,7.37
2018-09-05T11:30:38.318Z,5.12
2018-09-05T11:33:06.764Z,7.08
2018-09-05T11:35:35.138Z,7.20
2018-09-05T11:38:03.524Z,6.83
2018-09-05T11:40:31.931Z,6.03
2018-09-05T11:43:00.320Z,5.05
2018-09-05T11:45:28.672Z,4.87
2018-09-05T11:47:57.080Z,7.12
2018-09-05T11:50:25.479Z,4.55
2018-09-05T11:52:53.880Z,5.85
2018-09-05T11:55:22.261Z,5.62
2018-09-05T11:57:50.668Z,7.55
2018-09-05T12:00:19.081Z,7.10
2018-09-05T12:02:47.475Z,5.20
2018-09-05T12:05:15.845Z,4.65
2018-09-05T12:07:44.534Z,5.40
2018-09-05T12:10:12.917Z,6.35
2018-09-05T12:12:41.489Z,4.58
2018-09-05T12:15:09.854Z,5.55
2018-09-05T12:17:38.303Z,5.70
2018-09-05T12:20:06.753Z,5.58
2018-09-05T12:22:35.154Z,5.28
2018-09-05T12:25:03.538Z,5.25
2018-09-05T12:27:31.994Z,7.85
2018-09-05T12:30:00.477Z,5.92
2018-09-05T12:32:28.933Z,6.00
2018-09-05T12:34:57.384Z,4.97
2018-09-05T12:37:25.773Z,5.03
2018-09-05T12:39:54.146Z,5.87
2018-09-05T12:42:22.557Z,4.62
2018-09-05T12:44:50.976Z,6.15
2018-09-05T12:47:19.327Z,4.92
2018-09-05T12:49:47.713Z,4.60
2018-09-05T12:52:16.189Z,5.22
2018-09-05T12:54:44.585Z,5.67
2018-09-05T12:57:13.000Z,5.42
2018-09-05T12:59:41.358Z,4.45
2018-09-05T13:02:09.773Z,6.42
2018-09-05T13:04:38.109Z,6.08
2018-09-05T13:07:06.531Z,6.30
2018-09-05T13:09:34.885Z,5.15
2018-09-05T13:12:03.277Z,7.37
2018-09-05T13:14:31.832Z,4.85
2018-09-05T13:17:00.188Z,4.45
2018-09-05T13:19:28.567Z,4.65
2018-09-05T13:21:56.919Z,5.47
2018-09-05T13:24:25.292Z,8.70
2018-09-05T13:26:53.669Z,6.30
2018-09-05T13:29:22.076Z,4.90
2018-09-05T13:31:50.435Z,5.72
2018-09-05T13:34:18.822Z,4.92
2018-09-05T13:36:47.177Z,4.55
2018-09-05T13:39:15.553Z,5.55
2018-09-05T13:41:43.913Z,5.22
2018-09-05T13:44:12.289Z,5.00
2018-09-05T13:46:40.643Z,7.42
2018-09-05T13:49:09.020Z,7.00
2018-09-05T13:51:37.524Z,6.40
2018-09-05T13:54:05.950Z,6.35
2018-09-05T13:56:34.302Z,5.72
2018-09-05T13:59:02.674Z,4.97
2018-09-05T14:01:31.014Z,6.92
2018-09-05T14:03:59.388Z,6.42
2018-09-05T14:06:27.737Z,5.20
2018-09-05T14:08:56.109Z,8.73
2018-09-05T14:11:24.446Z,4.17
2018-09-05T14:13:52.838Z,5.62
2018-09-05T14:16:21.410Z,5.20
2018-09-05T14:18:50.064Z,5.00
2018-09-05T14:21:18.408Z,7.67
2018-09-05T14:23:46.815Z,4.95
2018-09-05T14:26:15.181Z,4.65
2018-09-05T14:28:43.576Z,6.25
2018-09-05T14:31:11.944Z,4.20
2018-09-05T14:33:40.340Z,5.30
2018-09-05T14:36:08.696Z,4.83
2018-09-05T14:38:37.075Z,5.87
2018-09-05T14:41:05.432Z,6.00
2018-09-05T14:43:33.805Z,5.50
2018-09-05T14:46:02.202Z,5.53
2018-09-05T14:48:30.622Z,4.97
2018-09-05T14:50:58.976Z,5.30
2018-09-05T14:53:27.373Z,4.90
2018-09-05T14:55:55.887Z,5.20
2018-09-05T14:58:24.244Z,5.03
2018-09-05T15:00:52.583Z,6.25
2018-09-05T15:03:20.957Z,7.15
2018-09-05T15:05:49.315Z,5.37
2018-09-05T15:08:17.701Z,5.05
2018-09-05T15:10:46.063Z,4.90
2018-09-05T15:13:14.401Z,4.78
2018-09-05T15:15:42.783Z,6.05
2018-09-05T15:18:11.332Z,5.83
2018-09-05T15:20:39.704Z,5.37
2018-09-05T15:23:08.119Z,5.83
2018-09-05T15:25:36.520Z,4.80
2018-09-05T15:28:04.899Z,4.60
2018-09-05T15:30:33.259Z,4.95
2018-09-05T15:33:01.585Z,6.53
2018-09-05T15:35:29.945Z,5.72
2018-09-05T15:37:58.280Z,5.60
2018-09-05T15:40:26.645Z,6.17
2018-09-05T15:42:54.988Z,6.90
2018-09-05T15:45:23.352Z,7.22
2018-09-05T15:47:51.697Z,4.85
2018-09-05T15:50:20.076Z,5.00
2018-09-05T15:52:48.430Z,5.33
2018-09-05T15:55:16.789Z,5.60
2018-09-05T15:57:45.808Z,9.48
2018-09-05T16:00:14.276Z,5.40
2018-09-05T16:02:42.603Z,6.05
2018-09-05T16:05:10.987Z,5.53
2018-09-05T16:07:39.340Z,4.90
2018-09-05T16:10:07.728Z,4.60
2018-09-05T16:12:36.062Z,5.58
2018-09-05T16:15:04.810Z,4.90
2018-09-05T16:17:33.119Z,6.33
2018-09-05T16:20:01.946Z,5.87
2018-09-05T16:22:30.355Z,4.67
2018-09-05T16:24:58.720Z,5.42
2018-09-05T16:27:27.119Z,6.47
2018-09-05T16:29:55.569Z,4.25
2018-09-05T16:32:24.122Z,4.37
2018-09-05T16:34:52.496Z,5.45
2018-09-05T16:37:20.840Z,4.58
2018-09-05T16:39:49.220Z,5.78
2018-09-05T16:42:17.610Z,6.28
2018-09-05T16:44:46.876Z,7.47
2018-09-05T16:47:15.231Z,6.80
2018-09-05T16:49:43.625Z,5.15
2018-09-05T16:52:12.048Z,6.62
2018-09-05T16:54:40.517Z,5.00
2018-09-05T16:57:08.855Z,7.70
2018-09-05T16:59:37.245Z,6.97
2018-09-05T17:02:05.638Z,6.95
2018-09-05T17:04:34.005Z,5.92
2018-09-05T17:07:02.385Z,6.37
2018-09-05T17:09:30.757Z,6.33
2018-09-05T17:11:59.201Z,5.35
2018-09-05T17:14:27.568Z,5.35
2018-09-05T17:16:55.963Z,5.28
2018-09-05T17:19:24.304Z,8.63
2018-09-05T17:21:52.883Z,10.23
2018-09-05T17:24:21.234Z,5.67
2018-09-05T17:26:49.789Z,5.10
2018-09-05T17:29:18.332Z,4.75
2018-09-05T17:31:46.736Z,5.10
2018-09-05T17:34:15.125Z,5.03
2018-09-05T17:36:43.535Z,5.58
2018-09-05T17:39:14.892Z,6.58
2018-09-05T17:41:43.321Z,6.10
2018-09-05T17:44:11.957Z,5.95
2018-09-05T17:46:40.353Z,5.42
2018-09-05T17:49:09.173Z,5.03
2018-09-05T17:51:37.565Z,6.58
2018-09-05T17:54:06.040Z,5.30
2018-09-05T17:56:34.468Z,6.08
2018-09-05T17:59:02.885Z,8.80
2018-09-05T18:01:31.332Z,4.80
2018-09-05T18:03:59.685Z,5.53
2018-09-05T18:06:28.346Z,5.00
2018-09-05T18:08:56.743Z,6.40
2018-09-05T18:11:25.133Z,6.12
2018-09-05T18:13:53.530Z,7.78
2018-09-05T18:16:21.932Z,5.15
2018-09-05T18:18:50.297Z,6.75
2018-09-05T18:21:18.707Z,6.83
2018-09-05T18:23:47.066Z,5.75
2018-09-05T18:26:16.385Z,5.87
2018-09-05T18:28:45.853Z,4.22
2018-09-05T18:31:14.225Z,5.67
2018-09-05T18:33:42.608Z,5.58
2018-09-05T18:36:11.010Z,6.47
2018-09-05T18:38:39.377Z,5.50
2018-09-05T18:41:07.791Z,7.03
2018-09-05T18:43:36.152Z,7.10
2018-09-05T18:46:04.558Z,6.37
2018-09-05T18:48:32.942Z,6.65
2018-09-05T18:51:01.343Z,6.92
2018-09-05T18:53:29.685Z,5.90
2018-09-05T18:55:58.051Z,6.50
2018-09-05T18:58:26.500Z,6.10
2018-09-05T19:00:54.845Z,5.83
2018-09-05T19:03:23.196Z,6.50
2018-09-05T19:05:51.640Z,6.40
2018-09-05T19:08:20.025Z,6.00
2018-09-05T19:10:48.373Z,6.13
2018-09-05T19:13:16.732Z,6.25
2018-09-05T19:15:45.060Z,7.40
2018-09-05T19:18:13.405Z,5.77
2018-09-05T19:20:41.749Z,7.53
2018-09-05T19:23:10.094Z,5.93
2018-09-05T19:25:38.414Z,5.50
2018-09-05T19:28:06.814Z,5.63
2018-09-05T19:30:35.225Z,7.10
2018-09-05T19:33:03.591Z,7.10
2018-09-05T19:35:32.012Z,5.73
2018-09-05T19:38:00.308Z,5.87
2018-09-05T19:40:28.642Z,6.13
2018-09-05T19:42:56.998Z,10.53
2018-09-05T19:45:25.316Z,5.70
2018-09-05T19:47:53.685Z,6.10
2018-09-05T19:50:22.086Z,6.53
2018-09-05T19:52:50.429Z,6.20
2018-09-05T19:55:18.766Z,6.97
2018-09-05T19:57:47.137Z,6.50
2018-09-05T20:00:16.523Z,5.67
2018-09-05T20:02:44.895Z,8.17
2018-09-05T20:05:13.507Z,5.07
2018-09-05T20:07:41.900Z,6.70
2018-09-05T20:10:10.240Z,6.63
2018-09-05T20:12:38.626Z,6.07
2018-09-05T20:15:06.989Z,6.27
2018-09-05T20:17:35.343Z,5.90
2018-09-05T20:20:03.844Z,6.80
2018-09-05T20:22:32.183Z,6.33
2018-09-05T20:25:00.565Z,5.23
2018-09-05T20:27:28.937Z,6.27
2018-09-05T20:29:57.335Z,9.93
2018-09-05T20:32:25.924Z,6.13
2018-09-05T20:34:54.290Z,7.03
2018-09-05T20:37:22.648Z,8.07
2018-09-05T20:39:51.020Z,10.10
2018-09-05T20:42:19.385Z,7.43
2018-09-05T20:44:47.757Z,6.47
2018-09-05T20:47:16.118Z,6.77
2018-09-05T20:49:44.489Z,6.07
2018-09-05T20:52:12.921Z,6.50
2018-09-05T20:54:41.334Z,8.47
2018-09-05T20:57:09.700Z,8.53
2018-09-05T20:59:38.060Z,8.97
2018-09-05T21:02:06.440Z,7.63
2018-09-05T21:04:34.804Z,8.87
2018-09-05T21:07:03.175Z,7.80
2018-09-05T21:09:31.560Z,7.83
2018-09-05T21:11:59.926Z,8.60
2018-09-05T21:14:28.286Z,7.00
2018-09-05T21:16:56.721Z,6.53
2018-09-05T21:19:25.082Z,6.30
2018-09-05T21:21:53.451Z,7.90
2018-09-05T21:24:21.824Z,11.60
2018-09-05T21:26:50.198Z,7.33
2018-09-05T21:29:18.572Z,8.40
2018-09-05T21:31:46.943Z,6.13
2018-09-05T21:34:15.479Z,6.97
2018-09-05T21:36:43.857Z,6.57
2018-09-05T21:39:12.244Z,6.20
2018-09-05T21:41:40.608Z,7.20
2018-09-05T21:44:09.083Z,9.40
2018-09-05T21:46:37.548Z,8.07
2018-09-05T21:49:06.253Z,7.10
2018-09-05T21:51:34.676Z,6.93
2018-09-05T21:54:03.040Z,10.40
2018-09-05T21:56:31.405Z,8.20
2018-09-05T21:58:59.777Z,7.57
2018-09-05T22:01:28.168Z,6.87
2018-09-05T22:03:56.515Z,9.07
2018-09-05T22:06:24.868Z,8.30
2018-09-05T22:08:53.231Z,8.70
2018-09-05T22:11:26.804Z,10.27
2018-09-05T22:13:55.885Z,11.07
2018-09-05T22:16:24.296Z,11.03
2018-09-05T22:18:53.149Z,8.57
2018-09-05T22:21:21.520Z,9.23
2018-09-05T22:23:49.900Z,8.60
2018-09-05T22:26:18.276Z,7.93
2018-09-05T22:28:46.637Z,9.63
2018-09-05T22:31:15.007Z,8.93
2018-09-05T22:33:43.349Z,8.67
2018-09-05T22:36:11.779Z,8.87
2018-09-05T22:38:40.132Z,8.27
2018-09-05T22:41:08.672Z,7.43
2018-09-05T22:43:48.350Z,9.37
2018-09-05T22:46:28.196Z,8.80
2018-09-05T22:51:15.369Z,7.67
2018-09-05T22:54:32.015Z,6.93
2018-09-05T22:59:22.158Z,10.67
2018-09-05T23:02:05.424Z,9.30
2018-09-05T23:06:52.556Z,7.33
2018-09-05T23:09:32.452Z,7.47
2018-09-05T23:12:23.901Z,9.87
2018-09-05T23:15:04.215Z,8.17
2018-09-05T23:18:46.511Z,8.67
2018-09-05T23:21:20.394Z,6.90
2018-09-05T23:23:56.752Z,6.70
2018-09-05T23:26:25.276Z,10.30
2018-09-05T23:28:53.696Z,8.13
2018-09-05T23:31:22.451Z,6.07
2018-09-05T23:33:50.862Z,7.10
2018-09-05T23:36:19.644Z,8.03
2018-09-05T23:38:48.033Z,8.20
2018-09-05T23:41:16.470Z,7.43
2018-09-05T23:43:44.933Z,8.10
2018-09-05T23:46:13.440Z,8.00
2018-09-05T23:48:41.852Z,7.80
2018-09-05T23:51:10.237Z,10.73
2018-09-05T23:53:38.629Z,9.47
2018-09-05T23:56:06.997Z,7.43
2018-09-05T23:58:35.373Z,7.50
